sensor_id;sensor_type;location;lat;lon;timestamp;temperature;humidity
39825;DHT22;25503;52.532;13.640;2023-07-02T00:01:03;17.80;99.90
39825;DHT22;25503;52.532;13.640;2023-07-02T00:03:29;17.80;99.90
39825;DHT22;25503;52.532;13.640;2023-07-02T00:05:55;17.80;99.90
39825;DHT22;25503;52.532;13.640;2023-07-02T00:08:22;17.80;99.90
39825;DHT22;25503;52.532;13.640;2023-07-02T00:10:48;17.80;99.90
39825;DHT22;25503;52.532;13.640;2023-07-02T00:13:14;17.80;99.90
39825;DHT22;25503;52.532;13.640;2023-07-02T00:15:40;17.80;99.90
39825;DHT22;25503;52.532;13.640;2023-07-02T00:18:06;17.80;99.90
39825;DHT22;25503;52.532;13.640;2023-07-02T00:20:33;17.90;99.90
39825;DHT22;25503;52.532;13.640;2023-07-02T00:23:05;17.90;99.90
39825;DHT22;25503;52.532;13.640;2023-07-02T00:25:34;17.90;99.90
39825;DHT22;25503;52.532;13.640;2023-07-02T00:27:59;17.90;99.90
39825;DHT22;25503;52.532;13.640;2023-07-02T00:30:25;17.90;99.90
39825;DHT22;25503;52.532;13.640;2023-07-02T00:32:50;17.90;99.90
39825;DHT22;25503;52.532;13.640;2023-07-02T00:35:16;17.90;99.90
39825;DHT22;25503;52.532;13.640;2023-07-02T00:37:42;17.80;99.90
39825;DHT22;25503;52.532;13.640;2023-07-02T00:40:08;17.80;99.90
39825;DHT22;25503;52.532;13.640;2023-07-02T00:42:34;17.80;99.90
39825;DHT22;25503;52.532;13.640;2023-07-02T00:44:59;17.80;99.90
39825;DHT22;25503;52.532;13.640;2023-07-02T00:47:28;17.80;99.90
39825;DHT22;25503;52.532;13.640;2023-07-02T00:49:54;17.80;99.90
39825;DHT22;25503;52.532;13.640;2023-07-02T00:52:20;17.80;99.90
39825;DHT22;25503;52.532;13.640;2023-07-02T00:54:46;17.80;99.90
39825;DHT22;25503;52.532;13.640;2023-07-02T00:57:12;17.80;99.90
39825;DHT22;25503;52.532;13.640;2023-07-02T00:59:38;17.80;99.90
39825;DHT22;25503;52.532;13.640;2023-07-02T01:02:06;17.80;99.90
39825;DHT22;25503;52.532;13.640;2023-07-02T01:04:32;17.80;99.90
39825;DHT22;25503;52.532;13.640;2023-07-02T01:06:58;17.80;99.90
39825;DHT22;25503;52.532;13.640;2023-07-02T01:09:24;17.80;99.90
39825;DHT22;25503;52.532;13.640;2023-07-02T01:12:18;17.80;99.90
39825;DHT22;25503;52.532;13.640;2023-07-02T01:14:52;17.80;99.90
39825;DHT22;25503;52.532;13.640;2023-07-02T01:17:19;17.80;99.90
39825;DHT22;25503;52.532;13.640;2023-07-02T01:19:58;17.70;99.90
39825;DHT22;25503;52.532;13.640;2023-07-02T01:22:26;17.70;99.90
39825;DHT22;25503;52.532;13.640;2023-07-02T01:24:53;17.70;99.90
39825;DHT22;25503;52.532;13.640;2023-07-02T01:27:19;17.70;99.90
39825;DHT22;25503;52.532;13.640;2023-07-02T01:29:45;17.70;99.90
39825;DHT22;25503;52.532;13.640;2023-07-02T01:32:15;17.70;99.90
39825;DHT22;25503;52.532;13.640;2023-07-02T01:34:40;17.70;99.90
39825;DHT22;25503;52.532;13.640;2023-07-02T01:37:06;17.60;99.90
39825;DHT22;25503;52.532;13.640;2023-07-02T01:39:33;17.60;99.90
39825;DHT22;25503;52.532;13.640;2023-07-02T01:42:18;17.60;99.90
39825;DHT22;25503;52.532;13.640;2023-07-02T01:44:46;17.50;99.90
39825;DHT22;25503;52.532;13.640;2023-07-02T01:47:12;17.50;99.90
39825;DHT22;25503;52.532;13.640;2023-07-02T01:49:38;17.50;99.90
39825;DHT22;25503;52.532;13.640;2023-07-02T01:52:04;17.50;99.90
39825;DHT22;25503;52.532;13.640;2023-07-02T01:54:32;17.50;99.90
39825;DHT22;25503;52.532;13.640;2023-07-02T01:56:58;17.50;99.90
39825;DHT22;25503;52.532;13.640;2023-07-02T01:59:24;17.50;99.90
39825;DHT22;25503;52.532;13.640;2023-07-02T02:01:50;17.50;99.90
39825;DHT22;25503;52.532;13.640;2023-07-02T02:04:16;17.50;99.90
39825;DHT22;25503;52.532;13.640;2023-07-02T02:06:42;17.40;99.90
39825;DHT22;25503;52.532;13.640;2023-07-02T02:09:08;17.40;99.90
39825;DHT22;25503;52.532;13.640;2023-07-02T02:11:37;17.40;99.90
39825;DHT22;25503;52.532;13.640;2023-07-02T02:14:03;17.40;99.90
39825;DHT22;25503;52.532;13.640;2023-07-02T02:16:29;17.40;99.90
39825;DHT22;25503;52.532;13.640;2023-07-02T02:18:55;17.40;99.90
39825;DHT22;25503;52.532;13.640;2023-07-02T02:21:22;17.40;99.90
39825;DHT22;25503;52.532;13.640;2023-07-02T02:23:48;17.40;99.90
39825;DHT22;25503;52.532;13.640;2023-07-02T02:26:14;17.40;99.90
39825;DHT22;25503;52.532;13.640;2023-07-02T02:28:40;17.30;99.90
39825;DHT22;25503;52.532;13.640;2023-07-02T02:31:06;17.30;99.90
39825;DHT22;25503;52.532;13.640;2023-07-02T02:33:33;17.30;99.90
39825;DHT22;25503;52.532;13.640;2023-07-02T02:35:59;17.30;99.90
39825;DHT22;25503;52.532;13.640;2023-07-02T02:38:24;17.30;99.90
39825;DHT22;25503;52.532;13.640;2023-07-02T02:40:50;17.30;99.90
39825;DHT22;25503;52.532;13.640;2023-07-02T02:43:16;17.30;99.90
39825;DHT22;25503;52.532;13.640;2023-07-02T02:45:42;17.30;99.90
39825;DHT22;25503;52.532;13.640;2023-07-02T02:48:08;17.30;99.90
39825;DHT22;25503;52.532;13.640;2023-07-02T02:50:34;17.30;99.90
39825;DHT22;25503;52.532;13.640;2023-07-02T02:52:59;17.30;99.90
39825;DHT22;25503;52.532;13.640;2023-07-02T02:55:25;17.20;99.90
39825;DHT22;25503;52.532;13.640;2023-07-02T02:57:51;17.20;99.90
39825;DHT22;25503;52.532;13.640;2023-07-02T03:00:17;17.20;99.90
39825;DHT22;25503;52.532;13.640;2023-07-02T03:02:43;17.20;99.90
39825;DHT22;25503;52.532;13.640;2023-07-02T03:05:08;17.10;99.90
39825;DHT22;25503;52.532;13.640;2023-07-02T03:07:34;17.10;99.90
39825;DHT22;25503;52.532;13.640;2023-07-02T03:10:01;17.10;99.90
39825;DHT22;25503;52.532;13.640;2023-07-02T03:12:26;17.10;99.90
39825;DHT22;25503;52.532;13.640;2023-07-02T03:14:52;17.10;99.90
39825;DHT22;25503;52.532;13.640;2023-07-02T03:17:22;17.10;99.90
39825;DHT22;25503;52.532;13.640;2023-07-02T03:19:48;17.10;99.90
39825;DHT22;25503;52.532;13.640;2023-07-02T03:22:14;17.00;99.90
39825;DHT22;25503;52.532;13.640;2023-07-02T03:24:39;17.00;99.90
39825;DHT22;25503;52.532;13.640;2023-07-02T03:27:05;17.00;99.90
39825;DHT22;25503;52.532;13.640;2023-07-02T03:29:32;17.00;99.90
39825;DHT22;25503;52.532;13.640;2023-07-02T03:31:58;17.00;99.90
39825;DHT22;25503;52.532;13.640;2023-07-02T03:34:23;17.00;99.90
39825;DHT22;25503;52.532;13.640;2023-07-02T03:36:49;17.00;99.90
39825;DHT22;25503;52.532;13.640;2023-07-02T03:39:15;17.00;99.90
39825;DHT22;25503;52.532;13.640;2023-07-02T03:41:41;17.00;99.90
39825;DHT22;25503;52.532;13.640;2023-07-02T03:44:07;17.00;99.90
39825;DHT22;25503;52.532;13.640;2023-07-02T03:46:33;17.10;99.90
39825;DHT22;25503;52.532;13.640;2023-07-02T03:48:59;17.10;99.90
39825;DHT22;25503;52.532;13.640;2023-07-02T03:51:24;17.00;99.90
39825;DHT22;25503;52.532;13.640;2023-07-02T03:53:50;17.10;99.90
39825;DHT22;25503;52.532;13.640;2023-07-02T03:56:15;17.00;99.90
39825;DHT22;25503;52.532;13.640;2023-07-02T03:58:41;17.10;99.90
39825;DHT22;25503;52.532;13.640;2023-07-02T04:01:07;17.10;99.90
39825;DHT22;25503;52.532;13.640;2023-07-02T04:03:32;17.00;99.90
39825;DHT22;25503;52.532;13.640;2023-07-02T04:05:58;17.00;99.90
39825;DHT22;25503;52.532;13.640;2023-07-02T04:08:24;17.00;99.90
39825;DHT22;25503;52.532;13.640;2023-07-02T04:10:54;17.00;99.90
39825;DHT22;25503;52.532;13.640;2023-07-02T04:13:19;17.00;99.90
39825;DHT22;25503;52.532;13.640;2023-07-02T04:15:45;17.10;99.90
39825;DHT22;25503;52.532;13.640;2023-07-02T04:18:10;17.00;99.90
39825;DHT22;25503;52.532;13.640;2023-07-02T04:20:36;17.00;99.90
39825;DHT22;25503;52.532;13.640;2023-07-02T04:23:04;17.00;99.90
39825;DHT22;25503;52.532;13.640;2023-07-02T04:25:30;17.00;99.90
39825;DHT22;25503;52.532;13.640;2023-07-02T04:27:56;17.00;99.90
39825;DHT22;25503;52.532;13.640;2023-07-02T04:30:22;17.00;99.90
39825;DHT22;25503;52.532;13.640;2023-07-02T04:32:48;17.00;99.90
39825;DHT22;25503;52.532;13.640;2023-07-02T04:35:13;17.00;99.90
39825;DHT22;25503;52.532;13.640;2023-07-02T04:37:39;17.00;99.90
39825;DHT22;25503;52.532;13.640;2023-07-02T04:40:05;17.00;99.90
39825;DHT22;25503;52.532;13.640;2023-07-02T04:42:38;17.00;99.90
39825;DHT22;25503;52.532;13.640;2023-07-02T04:45:07;17.00;99.90
39825;DHT22;25503;52.532;13.640;2023-07-02T04:47:34;17.00;99.90
39825;DHT22;25503;52.532;13.640;2023-07-02T04:50:00;17.00;99.90
39825;DHT22;25503;52.532;13.640;2023-07-02T04:52:26;17.00;99.90
39825;DHT22;25503;52.532;13.640;2023-07-02T04:54:52;17.00;99.90
39825;DHT22;25503;52.532;13.640;2023-07-02T04:57:18;17.10;99.90
39825;DHT22;25503;52.532;13.640;2023-07-02T04:59:44;17.10;99.90
39825;DHT22;25503;52.532;13.640;2023-07-02T05:02:09;17.10;99.90
39825;DHT22;25503;52.532;13.640;2023-07-02T05:04:35;17.10;99.90
39825;DHT22;25503;52.532;13.640;2023-07-02T05:07:03;17.10;99.90
39825;DHT22;25503;52.532;13.640;2023-07-02T05:09:30;17.10;99.90
39825;DHT22;25503;52.532;13.640;2023-07-02T05:11:55;17.20;99.90
39825;DHT22;25503;52.532;13.640;2023-07-02T05:14:21;17.20;99.90
39825;DHT22;25503;52.532;13.640;2023-07-02T05:16:48;17.20;99.90
39825;DHT22;25503;52.532;13.640;2023-07-02T05:19:14;17.30;99.90
39825;DHT22;25503;52.532;13.640;2023-07-02T05:21:40;17.40;99.90
39825;DHT22;25503;52.532;13.640;2023-07-02T05:24:06;17.40;99.90
39825;DHT22;25503;52.532;13.640;2023-07-02T05:26:32;17.50;99.90
39825;DHT22;25503;52.532;13.640;2023-07-02T05:28:58;17.60;99.90
39825;DHT22;25503;52.532;13.640;2023-07-02T05:31:24;17.60;99.90
39825;DHT22;25503;52.532;13.640;2023-07-02T05:33:49;17.70;99.90
39825;DHT22;25503;52.532;13.640;2023-07-02T05:36:15;17.70;99.90
39825;DHT22;25503;52.532;13.640;2023-07-02T05:38:40;17.80;99.90
39825;DHT22;25503;52.532;13.640;2023-07-02T05:41:06;17.80;99.90
39825;DHT22;25503;52.532;13.640;2023-07-02T05:43:31;17.80;99.90
39825;DHT22;25503;52.532;13.640;2023-07-02T05:46:00;17.80;99.90
39825;DHT22;25503;52.532;13.640;2023-07-02T05:48:26;17.80;99.90
39825;DHT22;25503;52.532;13.640;2023-07-02T05:50:52;17.80;99.90
39825;DHT22;25503;52.532;13.640;2023-07-02T05:53:18;17.80;99.90
39825;DHT22;25503;52.532;13.640;2023-07-02T05:55:43;17.80;99.90
39825;DHT22;25503;52.532;13.640;2023-07-02T05:58:10;17.80;99.90
39825;DHT22;25503;52.532;13.640;2023-07-02T06:00:35;17.90;99.90
39825;DHT22;25503;52.532;13.640;2023-07-02T06:03:01;18.00;99.90
39825;DHT22;25503;52.532;13.640;2023-07-02T06:05:27;18.00;99.90
39825;DHT22;25503;52.532;13.640;2023-07-02T06:07:52;18.10;99.90
39825;DHT22;25503;52.532;13.640;2023-07-02T06:10:18;18.00;99.90
39825;DHT22;25503;52.532;13.640;2023-07-02T06:12:43;18.10;99.90
39825;DHT22;25503;52.532;13.640;2023-07-02T06:15:10;18.10;99.90
39825;DHT22;25503;52.532;13.640;2023-07-02T06:17:35;18.10;99.90
39825;DHT22;25503;52.532;13.640;2023-07-02T06:20:03;18.20;99.90
39825;DHT22;25503;52.532;13.640;2023-07-02T06:22:32;18.20;99.90
39825;DHT22;25503;52.532;13.640;2023-07-02T06:24:57;18.40;99.90
39825;DHT22;25503;52.532;13.640;2023-07-02T06:27:23;18.40;99.90
39825;DHT22;25503;52.532;13.640;2023-07-02T06:29:48;18.50;99.90
39825;DHT22;25503;52.532;13.640;2023-07-02T06:32:15;18.70;99.90
39825;DHT22;25503;52.532;13.640;2023-07-02T06:34:41;18.80;99.90
39825;DHT22;25503;52.532;13.640;2023-07-02T06:37:07;18.80;99.90
39825;DHT22;25503;52.532;13.640;2023-07-02T06:39:32;18.80;99.90
39825;DHT22;25503;52.532;13.640;2023-07-02T06:41:58;18.90;99.90
39825;DHT22;25503;52.532;13.640;2023-07-02T06:44:23;18.90;99.90
39825;DHT22;25503;52.532;13.640;2023-07-02T06:46:49;18.90;99.90
39825;DHT22;25503;52.532;13.640;2023-07-02T06:49:14;18.90;99.90
39825;DHT22;25503;52.532;13.640;2023-07-02T06:51:40;18.90;99.90
39825;DHT22;25503;52.532;13.640;2023-07-02T06:54:06;18.90;99.90
39825;DHT22;25503;52.532;13.640;2023-07-02T06:56:32;19.00;99.90
39825;DHT22;25503;52.532;13.640;2023-07-02T06:58:59;19.00;99.90
39825;DHT22;25503;52.532;13.640;2023-07-02T07:01:25;19.00;99.90
39825;DHT22;25503;52.532;13.640;2023-07-02T07:03:51;19.10;99.90
39825;DHT22;25503;52.532;13.640;2023-07-02T07:06:16;19.10;99.90
39825;DHT22;25503;52.532;13.640;2023-07-02T07:08:42;19.20;99.90
39825;DHT22;25503;52.532;13.640;2023-07-02T07:11:08;19.30;99.90
39825;DHT22;25503;52.532;13.640;2023-07-02T07:13:33;19.40;99.90
39825;DHT22;25503;52.532;13.640;2023-07-02T07:15:59;19.40;99.90
39825;DHT22;25503;52.532;13.640;2023-07-02T07:18:25;19.50;99.90
39825;DHT22;25503;52.532;13.640;2023-07-02T07:20:50;19.50;99.90
39825;DHT22;25503;52.532;13.640;2023-07-02T07:23:18;19.50;99.90
39825;DHT22;25503;52.532;13.640;2023-07-02T07:25:43;19.50;99.90
39825;DHT22;25503;52.532;13.640;2023-07-02T07:28:09;19.60;99.90
39825;DHT22;25503;52.532;13.640;2023-07-02T07:30:40;19.60;99.90
39825;DHT22;25503;52.532;13.640;2023-07-02T07:33:07;19.60;99.90
39825;DHT22;25503;52.532;13.640;2023-07-02T07:35:33;19.60;99.90
39825;DHT22;25503;52.532;13.640;2023-07-02T07:37:58;19.60;99.90
39825;DHT22;25503;52.532;13.640;2023-07-02T07:40:24;19.60;99.90
39825;DHT22;25503;52.532;13.640;2023-07-02T07:42:49;19.60;99.90
39825;DHT22;25503;52.532;13.640;2023-07-02T07:45:15;19.60;99.90
39825;DHT22;25503;52.532;13.640;2023-07-02T07:47:40;19.60;99.90
39825;DHT22;25503;52.532;13.640;2023-07-02T07:50:07;19.80;99.90
39825;DHT22;25503;52.532;13.640;2023-07-02T07:52:37;19.90;99.90
39825;DHT22;25503;52.532;13.640;2023-07-02T07:55:04;20.00;99.90
39825;DHT22;25503;52.532;13.640;2023-07-02T07:57:29;20.10;99.90
39825;DHT22;25503;52.532;13.640;2023-07-02T07:59:55;20.10;99.90
39825;DHT22;25503;52.532;13.640;2023-07-02T08:02:20;20.00;99.90
39825;DHT22;25503;52.532;13.640;2023-07-02T08:04:48;20.00;99.90
39825;DHT22;25503;52.532;13.640;2023-07-02T08:07:14;19.90;99.90
39825;DHT22;25503;52.532;13.640;2023-07-02T08:09:39;19.80;99.90
39825;DHT22;25503;52.532;13.640;2023-07-02T08:12:05;19.70;99.90
39825;DHT22;25503;52.532;13.640;2023-07-02T08:14:31;19.70;99.90
39825;DHT22;25503;52.532;13.640;2023-07-02T08:16:56;19.60;99.90
39825;DHT22;25503;52.532;13.640;2023-07-02T08:19:22;19.50;99.90
39825;DHT22;25503;52.532;13.640;2023-07-02T08:21:48;19.50;99.90
39825;DHT22;25503;52.532;13.640;2023-07-02T08:24:13;19.40;99.90
39825;DHT22;25503;52.532;13.640;2023-07-02T08:26:39;19.30;99.90
39825;DHT22;25503;52.532;13.640;2023-07-02T08:29:04;19.20;99.90
39825;DHT22;25503;52.532;13.640;2023-07-02T08:31:30;19.20;99.90
39825;DHT22;25503;52.532;13.640;2023-07-02T08:33:56;19.10;99.90
39825;DHT22;25503;52.532;13.640;2023-07-02T08:36:21;19.10;99.90
39825;DHT22;25503;52.532;13.640;2023-07-02T08:38:47;19.00;99.90
39825;DHT22;25503;52.532;13.640;2023-07-02T08:41:12;19.00;99.90
39825;DHT22;25503;52.532;13.640;2023-07-02T08:43:39;19.00;99.90
39825;DHT22;25503;52.532;13.640;2023-07-02T08:46:05;19.00;99.90
39825;DHT22;25503;52.532;13.640;2023-07-02T08:48:33;19.00;99.90
39825;DHT22;25503;52.532;13.640;2023-07-02T08:50:59;19.00;99.90
39825;DHT22;25503;52.532;13.640;2023-07-02T08:53:25;19.00;99.90
39825;DHT22;25503;52.532;13.640;2023-07-02T08:55:55;19.00;99.90
39825;DHT22;25503;52.532;13.640;2023-07-02T08:58:22;19.00;99.90
39825;DHT22;25503;52.532;13.640;2023-07-02T09:01:07;19.00;99.90
39825;DHT22;25503;52.532;13.640;2023-07-02T09:03:33;18.90;99.90
39825;DHT22;25503;52.532;13.640;2023-07-02T09:05:59;19.00;99.90
39825;DHT22;25503;52.532;13.640;2023-07-02T09:08:27;18.90;99.90
39825;DHT22;25503;52.532;13.640;2023-07-02T09:10:54;18.90;99.90
39825;DHT22;25503;52.532;13.640;2023-07-02T09:13:19;18.90;99.90
39825;DHT22;25503;52.532;13.640;2023-07-02T09:15:45;18.90;99.90
39825;DHT22;25503;52.532;13.640;2023-07-02T09:18:21;18.90;99.90
39825;DHT22;25503;52.532;13.640;2023-07-02T09:20:54;18.90;99.90
39825;DHT22;25503;52.532;13.640;2023-07-02T09:23:20;18.90;99.90
39825;DHT22;25503;52.532;13.640;2023-07-02T09:25:46;18.90;99.90
39825;DHT22;25503;52.532;13.640;2023-07-02T09:28:22;19.00;99.90
39825;DHT22;25503;52.532;13.640;2023-07-02T09:30:52;19.10;99.90
39825;DHT22;25503;52.532;13.640;2023-07-02T09:33:17;19.20;99.90
39825;DHT22;25503;52.532;13.640;2023-07-02T09:35:43;19.30;99.90
39825;DHT22;25503;52.532;13.640;2023-07-02T09:38:10;19.40;99.90
39825;DHT22;25503;52.532;13.640;2023-07-02T09:40:46;19.50;99.90
39825;DHT22;25503;52.532;13.640;2023-07-02T09:43:13;19.60;99.90
39825;DHT22;25503;52.532;13.640;2023-07-02T09:45:42;19.50;99.90
39825;DHT22;25503;52.532;13.640;2023-07-02T09:48:09;19.60;99.90
39825;DHT22;25503;52.532;13.640;2023-07-02T09:50:35;19.70;99.90
39825;DHT22;25503;52.532;13.640;2023-07-02T09:53:03;19.70;99.90
39825;DHT22;25503;52.532;13.640;2023-07-02T09:55:29;19.80;99.90
39825;DHT22;25503;52.532;13.640;2023-07-02T09:57:55;19.80;99.90
39825;DHT22;25503;52.532;13.640;2023-07-02T10:00:20;19.80;99.90
39825;DHT22;25503;52.532;13.640;2023-07-02T10:02:49;19.90;99.90
39825;DHT22;25503;52.532;13.640;2023-07-02T10:05:32;19.90;99.90
39825;DHT22;25503;52.532;13.640;2023-07-02T10:08:19;20.10;99.90
39825;DHT22;25503;52.532;13.640;2023-07-02T10:10:46;20.30;99.90
39825;DHT22;25503;52.532;13.640;2023-07-02T10:13:12;20.40;99.90
39825;DHT22;25503;52.532;13.640;2023-07-02T10:15:38;20.60;99.90
39825;DHT22;25503;52.532;13.640;2023-07-02T10:18:05;20.60;99.90
39825;DHT22;25503;52.532;13.640;2023-07-02T10:20:32;20.70;99.90
39825;DHT22;25503;52.532;13.640;2023-07-02T10:23:02;20.70;99.90
39825;DHT22;25503;52.532;13.640;2023-07-02T10:25:32;20.70;99.90
39825;DHT22;25503;52.532;13.640;2023-07-02T10:28:01;20.80;99.90
39825;DHT22;25503;52.532;13.640;2023-07-02T10:30:36;20.90;99.90
39825;DHT22;25503;52.532;13.640;2023-07-02T10:35:35;20.90;99.90
39825;DHT22;25503;52.532;13.640;2023-07-02T10:38:01;21.10;99.90
39825;DHT22;25503;52.532;13.640;2023-07-02T10:40:26;21.20;99.90
39825;DHT22;25503;52.532;13.640;2023-07-02T10:42:53;21.40;99.90
39825;DHT22;25503;52.532;13.640;2023-07-02T10:45:19;21.60;99.90
39825;DHT22;25503;52.532;13.640;2023-07-02T10:47:45;21.70;99.90
39825;DHT22;25503;52.532;13.640;2023-07-02T10:50:19;21.70;99.90
39825;DHT22;25503;52.532;13.640;2023-07-02T10:52:46;21.60;99.90
39825;DHT22;25503;52.532;13.640;2023-07-02T10:55:17;21.60;99.90
39825;DHT22;25503;52.532;13.640;2023-07-02T10:57:43;21.50;99.90
39825;DHT22;25503;52.532;13.640;2023-07-02T11:00:09;21.60;99.90
39825;DHT22;25503;52.532;13.640;2023-07-02T11:02:38;21.70;99.90
39825;DHT22;25503;52.532;13.640;2023-07-02T11:05:07;21.80;99.90
39825;DHT22;25503;52.532;13.640;2023-07-02T11:07:40;21.80;99.90
39825;DHT22;25503;52.532;13.640;2023-07-02T11:10:07;21.70;99.90
39825;DHT22;25503;52.532;13.640;2023-07-02T11:12:33;21.70;99.90
39825;DHT22;25503;52.532;13.640;2023-07-02T11:15:10;21.70;99.90
39825;DHT22;25503;52.532;13.640;2023-07-02T11:17:35;21.80;99.90
39825;DHT22;25503;52.532;13.640;2023-07-02T11:20:01;21.70;99.90
39825;DHT22;25503;52.532;13.640;2023-07-02T11:22:34;21.70;99.90
39825;DHT22;25503;52.532;13.640;2023-07-02T11:27:40;21.80;99.90
39825;DHT22;25503;52.532;13.640;2023-07-02T11:30:06;21.60;99.90
39825;DHT22;25503;52.532;13.640;2023-07-02T11:32:46;21.50;99.90
39825;DHT22;25503;52.532;13.640;2023-07-02T11:35:13;21.40;99.90
39825;DHT22;25503;52.532;13.640;2023-07-02T11:37:39;21.20;99.90
39825;DHT22;25503;52.532;13.640;2023-07-02T11:40:05;21.10;99.90
39825;DHT22;25503;52.532;13.640;2023-07-02T11:42:31;21.10;99.90
39825;DHT22;25503;52.532;13.640;2023-07-02T11:44:56;21.00;99.90
39825;DHT22;25503;52.532;13.640;2023-07-02T11:47:22;21.20;99.90
39825;DHT22;25503;52.532;13.640;2023-07-02T11:49:47;21.50;99.90
39825;DHT22;25503;52.532;13.640;2023-07-02T11:52:13;21.90;99.90
39825;DHT22;25503;52.532;13.640;2023-07-02T11:54:40;22.00;99.90
39825;DHT22;25503;52.532;13.640;2023-07-02T11:57:06;22.10;99.90
39825;DHT22;25503;52.532;13.640;2023-07-02T11:59:31;22.00;99.90
39825;DHT22;25503;52.532;13.640;2023-07-02T12:01:57;22.00;99.90
39825;DHT22;25503;52.532;13.640;2023-07-02T12:04:23;22.20;99.90
39825;DHT22;25503;52.532;13.640;2023-07-02T12:06:48;22.40;99.90
39825;DHT22;25503;52.532;13.640;2023-07-02T12:09:14;22.70;99.90
39825;DHT22;25503;52.532;13.640;2023-07-02T12:11:39;22.90;99.90
39825;DHT22;25503;52.532;13.640;2023-07-02T12:14:05;23.00;99.90
39825;DHT22;25503;52.532;13.640;2023-07-02T12:16:30;23.00;99.90
39825;DHT22;25503;52.532;13.640;2023-07-02T12:18:56;23.00;99.90
39825;DHT22;25503;52.532;13.640;2023-07-02T12:21:22;23.00;99.90
39825;DHT22;25503;52.532;13.640;2023-07-02T12:23:47;23.00;99.90
39825;DHT22;25503;52.532;13.640;2023-07-02T12:26:13;23.10;99.90
39825;DHT22;25503;52.532;13.640;2023-07-02T12:28:38;23.30;99.90
39825;DHT22;25503;52.532;13.640;2023-07-02T12:31:04;23.40;99.90
39825;DHT22;25503;52.532;13.640;2023-07-02T12:33:29;23.50;99.90
39825;DHT22;25503;52.532;13.640;2023-07-02T12:35:55;23.70;99.90
39825;DHT22;25503;52.532;13.640;2023-07-02T12:38:20;23.80;99.90
39825;DHT22;25503;52.532;13.640;2023-07-02T12:40:46;23.90;99.90
39825;DHT22;25503;52.532;13.640;2023-07-02T12:43:14;23.90;99.90
39825;DHT22;25503;52.532;13.640;2023-07-02T12:45:39;23.80;99.90
39825;DHT22;25503;52.532;13.640;2023-07-02T12:48:05;23.70;99.90
39825;DHT22;25503;52.532;13.640;2023-07-02T12:50:30;23.60;99.90
39825;DHT22;25503;52.532;13.640;2023-07-02T12:52:56;23.70;99.90
39825;DHT22;25503;52.532;13.640;2023-07-02T12:55:22;23.80;99.90
39825;DHT22;25503;52.532;13.640;2023-07-02T12:57:47;23.80;99.90
39825;DHT22;25503;52.532;13.640;2023-07-02T13:00:13;23.80;99.90
39825;DHT22;25503;52.532;13.640;2023-07-02T13:02:39;23.80;99.90
39825;DHT22;25503;52.532;13.640;2023-07-02T13:05:05;23.90;99.90
39825;DHT22;25503;52.532;13.640;2023-07-02T13:07:31;24.00;99.90
39825;DHT22;25503;52.532;13.640;2023-07-02T13:09:56;24.00;99.60
39825;DHT22;25503;52.532;13.640;2023-07-02T13:12:22;24.00;99.90
39825;DHT22;25503;52.532;13.640;2023-07-02T13:14:47;24.20;99.90
39825;DHT22;25503;52.532;13.640;2023-07-02T13:17:13;24.10;99.90
39825;DHT22;25503;52.532;13.640;2023-07-02T13:19:39;23.70;99.90
39825;DHT22;25503;52.532;13.640;2023-07-02T13:22:04;23.40;99.90
39825;DHT22;25503;52.532;13.640;2023-07-02T13:24:34;23.30;99.90
39825;DHT22;25503;52.532;13.640;2023-07-02T13:27:02;23.10;99.90
39825;DHT22;25503;52.532;13.640;2023-07-02T13:29:29;23.10;99.90
39825;DHT22;25503;52.532;13.640;2023-07-02T13:31:55;23.30;99.90
39825;DHT22;25503;52.532;13.640;2023-07-02T13:34:21;23.50;99.90
39825;DHT22;25503;52.532;13.640;2023-07-02T13:36:46;23.60;99.90
39825;DHT22;25503;52.532;13.640;2023-07-02T13:39:12;23.70;99.90
39825;DHT22;25503;52.532;13.640;2023-07-02T13:41:37;23.70;99.90
39825;DHT22;25503;52.532;13.640;2023-07-02T13:44:03;23.70;99.90
39825;DHT22;25503;52.532;13.640;2023-07-02T13:46:29;23.70;99.90
39825;DHT22;25503;52.532;13.640;2023-07-02T13:48:55;23.80;99.80
39825;DHT22;25503;52.532;13.640;2023-07-02T13:51:21;23.80;99.80
39825;DHT22;25503;52.532;13.640;2023-07-02T13:53:46;23.80;99.90
39825;DHT22;25503;52.532;13.640;2023-07-02T13:56:12;23.70;99.70
39825;DHT22;25503;52.532;13.640;2023-07-02T14:01:24;23.80;99.50
39825;DHT22;25503;52.532;13.640;2023-07-02T14:03:50;23.70;99.90
39825;DHT22;25503;52.532;13.640;2023-07-02T14:06:16;23.60;99.20
39825;DHT22;25503;52.532;13.640;2023-07-02T14:08:42;23.70;99.40
39825;DHT22;25503;52.532;13.640;2023-07-02T14:11:08;23.70;99.70
39825;DHT22;25503;52.532;13.640;2023-07-02T14:13:34;23.40;99.90
39825;DHT22;25503;52.532;13.640;2023-07-02T14:16:00;23.20;99.90
39825;DHT22;25503;52.532;13.640;2023-07-02T14:18:25;23.10;99.90
39825;DHT22;25503;52.532;13.640;2023-07-02T14:20:51;23.20;99.90
39825;DHT22;25503;52.532;13.640;2023-07-02T14:23:17;23.30;99.40
39825;DHT22;25503;52.532;13.640;2023-07-02T14:25:43;23.40;99.90
39825;DHT22;25503;52.532;13.640;2023-07-02T14:28:09;23.30;99.60
39825;DHT22;25503;52.532;13.640;2023-07-02T14:30:35;23.10;99.90
39825;DHT22;25503;52.532;13.640;2023-07-02T14:33:01;22.90;99.60
39825;DHT22;25503;52.532;13.640;2023-07-02T14:35:26;22.70;99.80
39825;DHT22;25503;52.532;13.640;2023-07-02T14:37:54;22.60;98.90
39825;DHT22;25503;52.532;13.640;2023-07-02T14:40:19;22.50;99.40
39825;DHT22;25503;52.532;13.640;2023-07-02T14:42:45;22.50;99.70
39825;DHT22;25503;52.532;13.640;2023-07-02T14:45:11;22.60;99.90
39825;DHT22;25503;52.532;13.640;2023-07-02T14:47:37;22.80;99.20
39825;DHT22;25503;52.532;13.640;2023-07-02T14:50:03;22.90;99.30
39825;DHT22;25503;52.532;13.640;2023-07-02T14:52:29;22.90;99.50
39825;DHT22;25503;52.532;13.640;2023-07-02T14:54:54;22.90;99.00
39825;DHT22;25503;52.532;13.640;2023-07-02T14:57:20;22.90;99.10
39825;DHT22;25503;52.532;13.640;2023-07-02T14:59:47;22.90;99.50
39825;DHT22;25503;52.532;13.640;2023-07-02T15:02:14;23.00;98.80
39825;DHT22;25503;52.532;13.640;2023-07-02T15:04:40;23.00;99.40
39825;DHT22;25503;52.532;13.640;2023-07-02T15:07:06;23.00;98.60
39825;DHT22;25503;52.532;13.640;2023-07-02T15:09:32;23.00;98.90
39825;DHT22;25503;52.532;13.640;2023-07-02T15:11:57;23.00;98.60
39825;DHT22;25503;52.532;13.640;2023-07-02T15:14:23;23.10;98.40
39825;DHT22;25503;52.532;13.640;2023-07-02T15:16:48;23.10;97.80
39825;DHT22;25503;52.532;13.640;2023-07-02T15:19:15;23.20;98.30